sensor_id;sensor_type;location;lat;lon;timestamp;P1;durP1;ratioP1;P2;durP2;ratioP2
68655;SDS011;55638;51.122;13.606;2024-03-08T00:01:02;22.33;;;14.20;;
68655;SDS011;55638;51.122;13.606;2024-03-08T00:02:35;21.70;;;14.02;;
68655;SDS011;55638;51.122;13.606;2024-03-08T00:04:08;22.13;;;13.63;;
68655;SDS011;55638;51.122;13.606;2024-03-08T00:05:40;20.20;;;13.20;;
68655;SDS011;55638;51.122;13.606;2024-03-08T00:07:13;21.20;;;13.25;;
68655;SDS011;55638;51.122;13.606;2024-03-08T00:08:45;22.63;;;13.88;;
68655;SDS011;55638;51.122;13.606;2024-03-08T00:10:16;20.05;;;12.32;;
68655;SDS011;55638;51.122;13.606;2024-03-08T00:11:48;23.23;;;14.50;;
68655;SDS011;55638;51.122;13.606;2024-03-08T00:13:21;23.73;;;14.82;;
68655;SDS011;55638;51.122;13.606;2024-03-08T00:14:53;25.45;;;14.27;;
68655;SDS011;55638;51.122;13.606;2024-03-08T00:16:26;22.75;;;13.88;;
68655;SDS011;55638;51.122;13.606;2024-03-08T00:17:58;23.92;;;14.77;;
68655;SDS011;55638;51.122;13.606;2024-03-08T00:19:30;25.25;;;15.13;;
68655;SDS011;55638;51.122;13.606;2024-03-08T00:21:02;24.17;;;14.48;;
68655;SDS011;55638;51.122;13.606;2024-03-08T00:22:34;24.15;;;14.32;;
68655;SDS011;55638;51.122;13.606;2024-03-08T00:24:07;26.48;;;14.98;;
68655;SDS011;55638;51.122;13.606;2024-03-08T00:25:39;22.75;;;14.63;;
68655;SDS011;55638;51.122;13.606;2024-03-08T00:27:11;24.38;;;14.60;;
68655;SDS011;55638;51.122;13.606;2024-03-08T00:28:43;24.73;;;14.93;;
68655;SDS011;55638;51.122;13.606;2024-03-08T00:30:15;22.75;;;13.43;;
68655;SDS011;55638;51.122;13.606;2024-03-08T00:31:47;24.77;;;14.82;;
68655;SDS011;55638;51.122;13.606;2024-03-08T00:33:19;24.33;;;14.55;;
68655;SDS011;55638;51.122;13.606;2024-03-08T00:34:51;22.98;;;13.57;;
68655;SDS011;55638;51.122;13.606;2024-03-08T00:36:26;23.27;;;13.80;;
68655;SDS011;55638;51.122;13.606;2024-03-08T00:37:57;25.25;;;14.80;;
68655;SDS011;55638;51.122;13.606;2024-03-08T00:39:29;21.45;;;13.65;;
68655;SDS011;55638;51.122;13.606;2024-03-08T00:41:01;23.55;;;12.98;;
68655;SDS011;55638;51.122;13.606;2024-03-08T00:42:33;20.80;;;12.57;;
68655;SDS011;55638;51.122;13.606;2024-03-08T00:44:05;20.55;;;12.30;;
68655;SDS011;55638;51.122;13.606;2024-03-08T00:45:37;22.13;;;13.07;;
68655;SDS011;55638;51.122;13.606;2024-03-08T00:47:09;24.30;;;12.70;;
68655;SDS011;55638;51.122;13.606;2024-03-08T00:48:41;20.40;;;12.20;;
68655;SDS011;55638;51.122;13.606;2024-03-08T00:50:15;26.58;;;14.35;;
68655;SDS011;55638;51.122;13.606;2024-03-08T00:51:47;22.95;;;14.20;;
68655;SDS011;55638;51.122;13.606;2024-03-08T00:53:19;24.38;;;14.73;;
68655;SDS011;55638;51.122;13.606;2024-03-08T00:54:51;24.75;;;14.50;;
68655;SDS011;55638;51.122;13.606;2024-03-08T00:56:23;22.88;;;14.52;;
68655;SDS011;55638;51.122;13.606;2024-03-08T00:57:56;26.88;;;14.65;;
68655;SDS011;55638;51.122;13.606;2024-03-08T00:59:30;23.45;;;14.20;;
68655;SDS011;55638;51.122;13.606;2024-03-08T01:01:06;23.17;;;13.63;;
68655;SDS011;55638;51.122;13.606;2024-03-08T01:02:38;23.52;;;13.93;;
68655;SDS011;55638;51.122;13.606;2024-03-08T01:04:10;25.88;;;14.77;;
68655;SDS011;55638;51.122;13.606;2024-03-08T01:05:43;23.77;;;14.27;;
68655;SDS011;55638;51.122;13.606;2024-03-08T01:07:15;23.65;;;13.98;;
68655;SDS011;55638;51.122;13.606;2024-03-08T01:08:47;22.08;;;13.75;;
68655;SDS011;55638;51.122;13.606;2024-03-08T01:10:19;23.88;;;14.18;;
68655;SDS011;55638;51.122;13.606;2024-03-08T01:11:50;24.30;;;13.60;;
68655;SDS011;55638;51.122;13.606;2024-03-08T01:13:22;23.70;;;14.05;;
68655;SDS011;55638;51.122;13.606;2024-03-08T01:14:55;24.05;;;13.45;;
68655;SDS011;55638;51.122;13.606;2024-03-08T01:16:27;20.67;;;13.55;;
68655;SDS011;55638;51.122;13.606;2024-03-08T01:17:59;23.73;;;14.13;;
68655;SDS011;55638;51.122;13.606;2024-03-08T01:19:33;22.85;;;14.35;;
68655;SDS011;55638;51.122;13.606;2024-03-08T01:21:05;27.42;;;14.75;;
68655;SDS011;55638;51.122;13.606;2024-03-08T01:22:38;23.55;;;13.30;;
68655;SDS011;55638;51.122;13.606;2024-03-08T01:24:10;22.33;;;12.95;;
68655;SDS011;55638;51.122;13.606;2024-03-08T01:25:42;25.67;;;14.43;;
68655;SDS011;55638;51.122;13.606;2024-03-08T01:27:15;24.23;;;13.85;;
68655;SDS011;55638;51.122;13.606;2024-03-08T01:28:47;21.88;;;13.23;;
68655;SDS011;55638;51.122;13.606;2024-03-08T01:30:21;24.58;;;14.40;;
68655;SDS011;55638;51.122;13.606;2024-03-08T01:31:53;24.98;;;14.50;;
68655;SDS011;55638;51.122;13.606;2024-03-08T01:33:25;23.55;;;14.38;;
68655;SDS011;55638;51.122;13.606;2024-03-08T01:34:58;24.35;;;15.13;;
68655;SDS011;55638;51.122;13.606;2024-03-08T01:36:30;27.35;;;15.40;;
68655;SDS011;55638;51.122;13.606;2024-03-08T01:38:02;26.95;;;15.50;;
68655;SDS011;55638;51.122;13.606;2024-03-08T01:39:36;23.83;;;14.50;;
68655;SDS011;55638;51.122;13.606;2024-03-08T01:41:08;23.75;;;14.07;;
68655;SDS011;55638;51.122;13.606;2024-03-08T01:42:40;22.25;;;13.57;;
68655;SDS011;55638;51.122;13.606;2024-03-08T01:44:12;24.17;;;13.82;;
68655;SDS011;55638;51.122;13.606;2024-03-08T01:45:48;24.85;;;15.05;;
68655;SDS011;55638;51.122;13.606;2024-03-08T01:47:21;26.85;;;15.68;;
68655;SDS011;55638;51.122;13.606;2024-03-08T01:48:54;21.63;;;13.88;;
68655;SDS011;55638;51.122;13.606;2024-03-08T01:50:27;26.85;;;15.48;;
68655;SDS011;55638;51.122;13.606;2024-03-08T01:51:59;24.52;;;14.25;;
68655;SDS011;55638;51.122;13.606;2024-03-08T01:53:31;23.77;;;14.60;;
68655;SDS011;55638;51.122;13.606;2024-03-08T01:55:04;25.67;;;15.27;;
68655;SDS011;55638;51.122;13.606;2024-03-08T01:56:39;28.70;;;16.33;;
68655;SDS011;55638;51.122;13.606;2024-03-08T01:58:11;24.92;;;15.68;;
68655;SDS011;55638;51.122;13.606;2024-03-08T01:59:44;23.30;;;14.40;;
68655;SDS011;55638;51.122;13.606;2024-03-08T02:01:16;27.63;;;15.88;;
68655;SDS011;55638;51.122;13.606;2024-03-08T02:02:51;26.48;;;15.50;;
68655;SDS011;55638;51.122;13.606;2024-03-08T02:04:25;27.42;;;14.85;;
68655;SDS011;55638;51.122;13.606;2024-03-08T02:05:57;24.42;;;14.30;;
68655;SDS011;55638;51.122;13.606;2024-03-08T02:07:30;25.48;;;14.23;;
68655;SDS011;55638;51.122;13.606;2024-03-08T02:09:03;21.13;;;12.43;;
68655;SDS011;55638;51.122;13.606;2024-03-08T02:10:38;21.73;;;13.27;;
68655;SDS011;55638;51.122;13.606;2024-03-08T02:12:10;22.75;;;12.88;;
68655;SDS011;55638;51.122;13.606;2024-03-08T02:13:43;23.58;;;12.73;;
68655;SDS011;55638;51.122;13.606;2024-03-08T02:15:15;25.73;;;13.43;;
68655;SDS011;55638;51.122;13.606;2024-03-08T02:16:48;23.52;;;13.00;;
68655;SDS011;55638;51.122;13.606;2024-03-08T02:18:20;24.58;;;12.80;;
68655;SDS011;55638;51.122;13.606;2024-03-08T02:19:53;21.30;;;12.60;;
68655;SDS011;55638;51.122;13.606;2024-03-08T02:21:28;22.05;;;12.75;;
68655;SDS011;55638;51.122;13.606;2024-03-08T02:23:01;23.25;;;13.27;;
68655;SDS011;55638;51.122;13.606;2024-03-08T02:24:33;24.70;;;13.88;;
68655;SDS011;55638;51.122;13.606;2024-03-08T02:26:05;21.33;;;13.48;;
68655;SDS011;55638;51.122;13.606;2024-03-08T02:27:38;22.33;;;13.70;;
68655;SDS011;55638;51.122;13.606;2024-03-08T02:29:11;22.63;;;12.95;;
68655;SDS011;55638;51.122;13.606;2024-03-08T02:30:43;25.13;;;13.90;;
68655;SDS011;55638;51.122;13.606;2024-03-08T02:32:15;24.50;;;14.98;;
68655;SDS011;55638;51.122;13.606;2024-03-08T02:33:47;27.40;;;15.57;;
68655;SDS011;55638;51.122;13.606;2024-03-08T02:35:19;26.67;;;16.23;;
68655;SDS011;55638;51.122;13.606;2024-03-08T02:36:51;28.48;;;15.43;;
68655;SDS011;55638;51.122;13.606;2024-03-08T02:38:23;30.65;;;16.38;;
68655;SDS011;55638;51.122;13.606;2024-03-08T02:39:56;27.40;;;15.98;;
68655;SDS011;55638;51.122;13.606;2024-03-08T02:41:28;28.35;;;16.60;;
68655;SDS011;55638;51.122;13.606;2024-03-08T02:43:00;29.30;;;17.08;;
68655;SDS011;55638;51.122;13.606;2024-03-08T02:44:32;27.95;;;16.02;;
68655;SDS011;55638;51.122;13.606;2024-03-08T02:46:05;29.92;;;16.80;;
68655;SDS011;55638;51.122;13.606;2024-03-08T02:47:37;27.98;;;16.30;;
68655;SDS011;55638;51.122;13.606;2024-03-08T02:49:09;25.27;;;15.73;;
68655;SDS011;55638;51.122;13.606;2024-03-08T02:50:41;31.40;;;17.08;;
68655;SDS011;55638;51.122;13.606;2024-03-08T02:52:17;26.65;;;15.63;;
68655;SDS011;55638;51.122;13.606;2024-03-08T02:53:49;25.83;;;16.08;;
68655;SDS011;55638;51.122;13.606;2024-03-08T02:55:23;28.27;;;16.02;;
68655;SDS011;55638;51.122;13.606;2024-03-08T02:56:57;30.00;;;15.48;;
68655;SDS011;55638;51.122;13.606;2024-03-08T02:58:29;27.98;;;16.25;;
68655;SDS011;55638;51.122;13.606;2024-03-08T03:00:01;27.95;;;16.85;;
68655;SDS011;55638;51.122;13.606;2024-03-08T03:01:33;23.38;;;14.70;;
68655;SDS011;55638;51.122;13.606;2024-03-08T03:03:05;28.15;;;16.45;;
68655;SDS011;55638;51.122;13.606;2024-03-08T03:04:41;25.67;;;15.00;;
68655;SDS011;55638;51.122;13.606;2024-03-08T03:06:13;26.65;;;15.90;;
68655;SDS011;55638;51.122;13.606;2024-03-08T03:07:45;26.58;;;15.63;;
68655;SDS011;55638;51.122;13.606;2024-03-08T03:09:17;27.55;;;15.38;;
68655;SDS011;55638;51.122;13.606;2024-03-08T03:10:55;27.08;;;15.95;;
68655;SDS011;55638;51.122;13.606;2024-03-08T03:12:28;30.83;;;16.88;;
68655;SDS011;55638;51.122;13.606;2024-03-08T03:14:01;28.00;;;16.40;;
68655;SDS011;55638;51.122;13.606;2024-03-08T03:15:33;29.25;;;16.60;;
68655;SDS011;55638;51.122;13.606;2024-03-08T03:17:08;28.00;;;15.40;;
68655;SDS011;55638;51.122;13.606;2024-03-08T03:18:41;27.67;;;15.13;;
68655;SDS011;55638;51.122;13.606;2024-03-08T03:20:14;27.02;;;15.73;;
68655;SDS011;55638;51.122;13.606;2024-03-08T03:21:54;25.73;;;15.80;;
68655;SDS011;55638;51.122;13.606;2024-03-08T03:23:26;27.67;;;15.82;;
68655;SDS011;55638;51.122;13.606;2024-03-08T03:24:58;27.30;;;16.45;;
68655;SDS011;55638;51.122;13.606;2024-03-08T03:26:32;28.20;;;15.98;;
68655;SDS011;55638;51.122;13.606;2024-03-08T03:28:04;26.52;;;16.35;;
68655;SDS011;55638;51.122;13.606;2024-03-08T03:29:37;26.88;;;16.00;;
68655;SDS011;55638;51.122;13.606;2024-03-08T03:31:13;24.15;;;14.65;;
68655;SDS011;55638;51.122;13.606;2024-03-08T03:32:49;27.02;;;15.02;;
68655;SDS011;55638;51.122;13.606;2024-03-08T03:34:23;27.65;;;15.13;;
68655;SDS011;55638;51.122;13.606;2024-03-08T03:35:55;25.17;;;14.93;;
68655;SDS011;55638;51.122;13.606;2024-03-08T03:37:26;26.55;;;15.05;;
68655;SDS011;55638;51.122;13.606;2024-03-08T03:38:58;27.55;;;15.25;;
68655;SDS011;55638;51.122;13.606;2024-03-08T03:40:56;25.48;;;15.13;;
68655;SDS011;55638;51.122;13.606;2024-03-08T03:42:35;26.35;;;15.13;;
68655;SDS011;55638;51.122;13.606;2024-03-08T03:44:09;27.58;;;14.77;;
68655;SDS011;55638;51.122;13.606;2024-03-08T03:45:41;24.60;;;14.13;;
68655;SDS011;55638;51.122;13.606;2024-03-08T03:47:16;25.98;;;14.10;;
68655;SDS011;55638;51.122;13.606;2024-03-08T03:48:48;24.40;;;14.82;;
68655;SDS011;55638;51.122;13.606;2024-03-08T03:50:20;27.05;;;15.25;;
68655;SDS011;55638;51.122;13.606;2024-03-08T03:51:53;24.65;;;13.90;;
68655;SDS011;55638;51.122;13.606;2024-03-08T03:53:25;26.50;;;14.38;;
68655;SDS011;55638;51.122;13.606;2024-03-08T03:54:57;23.33;;;12.93;;
68655;SDS011;55638;51.122;13.606;2024-03-08T03:56:29;26.55;;;13.35;;
68655;SDS011;55638;51.122;13.606;2024-03-08T03:58:02;24.30;;;13.57;;
68655;SDS011;55638;51.122;13.606;2024-03-08T03:59:34;24.25;;;13.70;;
68655;SDS011;55638;51.122;13.606;2024-03-08T04:01:06;25.80;;;13.32;;
68655;SDS011;55638;51.122;13.606;2024-03-08T04:02:38;24.98;;;14.10;;
68655;SDS011;55638;51.122;13.606;2024-03-08T04:04:10;26.60;;;14.27;;
68655;SDS011;55638;51.122;13.606;2024-03-08T04:05:44;26.55;;;14.75;;
68655;SDS011;55638;51.122;13.606;2024-03-08T04:07:18;25.48;;;14.45;;
68655;SDS011;55638;51.122;13.606;2024-03-08T04:08:50;25.33;;;14.02;;
68655;SDS011;55638;51.122;13.606;2024-03-08T04:10:22;23.33;;;13.05;;
68655;SDS011;55638;51.122;13.606;2024-03-08T04:11:54;24.45;;;13.23;;
68655;SDS011;55638;51.122;13.606;2024-03-08T04:13:27;26.27;;;14.05;;
68655;SDS011;55638;51.122;13.606;2024-03-08T04:14:59;25.35;;;13.98;;
68655;SDS011;55638;51.122;13.606;2024-03-08T04:16:31;26.70;;;14.48;;
68655;SDS011;55638;51.122;13.606;2024-03-08T04:18:03;24.50;;;13.63;;
68655;SDS011;55638;51.122;13.606;2024-03-08T04:19:36;25.73;;;13.85;;
68655;SDS011;55638;51.122;13.606;2024-03-08T04:21:08;26.48;;;13.38;;
68655;SDS011;55638;51.122;13.606;2024-03-08T04:22:40;25.77;;;14.40;;
68655;SDS011;55638;51.122;13.606;2024-03-08T04:24:11;22.92;;;12.70;;
68655;SDS011;55638;51.122;13.606;2024-03-08T04:25:43;23.50;;;13.75;;
68655;SDS011;55638;51.122;13.606;2024-03-08T04:27:15;22.50;;;13.30;;
68655;SDS011;55638;51.122;13.606;2024-03-08T04:28:47;24.02;;;12.95;;
68655;SDS011;55638;51.122;13.606;2024-03-08T04:30:19;23.95;;;13.85;;
68655;SDS011;55638;51.122;13.606;2024-03-08T04:31:53;25.48;;;13.52;;
68655;SDS011;55638;51.122;13.606;2024-03-08T04:33:27;23.95;;;13.40;;
68655;SDS011;55638;51.122;13.606;2024-03-08T04:35:00;23.35;;;13.55;;
68655;SDS011;55638;51.122;13.606;2024-03-08T04:36:35;24.70;;;13.80;;
68655;SDS011;55638;51.122;13.606;2024-03-08T04:38:07;24.98;;;13.40;;
68655;SDS011;55638;51.122;13.606;2024-03-08T04:39:39;21.80;;;13.55;;
68655;SDS011;55638;51.122;13.606;2024-03-08T04:41:11;25.02;;;13.60;;
68655;SDS011;55638;51.122;13.606;2024-03-08T04:42:43;24.85;;;13.32;;
68655;SDS011;55638;51.122;13.606;2024-03-08T04:44:15;24.10;;;13.57;;
68655;SDS011;55638;51.122;13.606;2024-03-08T04:45:47;25.70;;;14.48;;
68655;SDS011;55638;51.122;13.606;2024-03-08T04:47:20;26.50;;;14.55;;
68655;SDS011;55638;51.122;13.606;2024-03-08T04:48:51;29.90;;;16.02;;
68655;SDS011;55638;51.122;13.606;2024-03-08T04:50:23;27.35;;;15.77;;
68655;SDS011;55638;51.122;13.606;2024-03-08T04:51:55;28.25;;;15.02;;
68655;SDS011;55638;51.122;13.606;2024-03-08T04:53:27;30.75;;;16.08;;
68655;SDS011;55638;51.122;13.606;2024-03-08T04:54:59;27.77;;;15.68;;
68655;SDS011;55638;51.122;13.606;2024-03-08T04:56:31;27.20;;;15.65;;
68655;SDS011;55638;51.122;13.606;2024-03-08T04:58:03;30.13;;;15.82;;
68655;SDS011;55638;51.122;13.606;2024-03-08T04:59:38;29.67;;;16.23;;
68655;SDS011;55638;51.122;13.606;2024-03-08T05:01:10;29.05;;;15.43;;
68655;SDS011;55638;51.122;13.606;2024-03-08T05:02:42;28.45;;;15.82;;
68655;SDS011;55638;51.122;13.606;2024-03-08T05:04:14;29.10;;;15.75;;
68655;SDS011;55638;51.122;13.606;2024-03-08T05:05:46;27.80;;;15.32;;
68655;SDS011;55638;51.122;13.606;2024-03-08T05:07:18;28.15;;;15.65;;
68655;SDS011;55638;51.122;13.606;2024-03-08T05:08:50;27.13;;;15.13;;
68655;SDS011;55638;51.122;13.606;2024-03-08T05:10:22;28.40;;;16.45;;
68655;SDS011;55638;51.122;13.606;2024-03-08T05:11:54;29.50;;;16.40;;
68655;SDS011;55638;51.122;13.606;2024-03-08T05:13:26;30.27;;;17.15;;
68655;SDS011;55638;51.122;13.606;2024-03-08T05:14:58;28.10;;;16.23;;
68655;SDS011;55638;51.122;13.606;2024-03-08T05:16:30;28.50;;;16.17;;
68655;SDS011;55638;51.122;13.606;2024-03-08T05:18:02;25.75;;;15.70;;
68655;SDS011;55638;51.122;13.606;2024-03-08T05:19:35;25.23;;;14.88;;
68655;SDS011;55638;51.122;13.606;2024-03-08T05:21:07;28.17;;;15.95;;
68655;SDS011;55638;51.122;13.606;2024-03-08T05:22:41;25.88;;;15.07;;
68655;SDS011;55638;51.122;13.606;2024-03-08T05:24:12;26.83;;;14.95;;
68655;SDS011;55638;51.122;13.606;2024-03-08T05:25:46;27.67;;;15.27;;
68655;SDS011;55638;51.122;13.606;2024-03-08T05:27:21;28.25;;;15.50;;
68655;SDS011;55638;51.122;13.606;2024-03-08T05:28:52;29.83;;;16.83;;
68655;SDS011;55638;51.122;13.606;2024-03-08T05:30:24;29.02;;;16.15;;
68655;SDS011;55638;51.122;13.606;2024-03-08T05:31:56;30.05;;;17.27;;
68655;SDS011;55638;51.122;13.606;2024-03-08T05:33:29;32.33;;;17.17;;
68655;SDS011;55638;51.122;13.606;2024-03-08T05:35:01;27.13;;;15.48;;
68655;SDS011;55638;51.122;13.606;2024-03-08T05:36:38;28.65;;;16.25;;
68655;SDS011;55638;51.122;13.606;2024-03-08T05:38:10;27.85;;;14.57;;
68655;SDS011;55638;51.122;13.606;2024-03-08T05:39:44;25.85;;;14.30;;
68655;SDS011;55638;51.122;13.606;2024-03-08T05:41:16;24.90;;;14.25;;
68655;SDS011;55638;51.122;13.606;2024-03-08T05:42:49;25.15;;;14.45;;
68655;SDS011;55638;51.122;13.606;2024-03-08T05:44:21;24.30;;;14.55;;
68655;SDS011;55638;51.122;13.606;2024-03-08T05:45:53;26.83;;;15.35;;
68655;SDS011;55638;51.122;13.606;2024-03-08T05:47:25;24.95;;;14.60;;
68655;SDS011;55638;51.122;13.606;2024-03-08T05:49:02;26.90;;;14.75;;
68655;SDS011;55638;51.122;13.606;2024-03-08T05:50:37;24.58;;;14.43;;
68655;SDS011;55638;51.122;13.606;2024-03-08T05:52:10;29.02;;;15.55;;
68655;SDS011;55638;51.122;13.606;2024-03-08T05:53:41;26.48;;;15.50;;
68655;SDS011;55638;51.122;13.606;2024-03-08T05:55:14;29.27;;;16.13;;
68655;SDS011;55638;51.122;13.606;2024-03-08T05:56:46;29.38;;;16.73;;
68655;SDS011;55638;51.122;13.606;2024-03-08T05:58:19;28.92;;;16.65;;
68655;SDS011;55638;51.122;13.606;2024-03-08T05:59:51;32.40;;;18.30;;
68655;SDS011;55638;51.122;13.606;2024-03-08T06:01:24;29.30;;;17.08;;
68655;SDS011;55638;51.122;13.606;2024-03-08T06:02:56;31.40;;;17.00;;
68655;SDS011;55638;51.122;13.606;2024-03-08T06:04:28;28.92;;;16.08;;
68655;SDS011;55638;51.122;13.606;2024-03-08T06:06:00;28.92;;;15.68;;
68655;SDS011;55638;51.122;13.606;2024-03-08T06:07:34;29.40;;;15.88;;
68655;SDS011;55638;51.122;13.606;2024-03-08T06:09:05;27.10;;;15.88;;
68655;SDS011;55638;51.122;13.606;2024-03-08T06:10:44;27.80;;;15.93;;
68655;SDS011;55638;51.122;13.606;2024-03-08T06:12:16;23.33;;;13.73;;
68655;SDS011;55638;51.122;13.606;2024-03-08T06:13:50;27.05;;;16.42;;
68655;SDS011;55638;51.122;13.606;2024-03-08T06:15:22;28.80;;;15.57;;
68655;SDS011;55638;51.122;13.606;2024-03-08T06:16:54;27.70;;;16.17;;
68655;SDS011;55638;51.122;13.606;2024-03-08T06:18:26;29.92;;;15.82;;
68655;SDS011;55638;51.122;13.606;2024-03-08T06:19:58;29.17;;;16.65;;
68655;SDS011;55638;51.122;13.606;2024-03-08T06:21:30;28.10;;;16.25;;
68655;SDS011;55638;51.122;13.606;2024-03-08T06:23:03;27.48;;;15.30;;
68655;SDS011;55638;51.122;13.606;2024-03-08T06:24:35;27.83;;;15.82;;
68655;SDS011;55638;51.122;13.606;2024-03-08T06:26:09;28.60;;;16.20;;
68655;SDS011;55638;51.122;13.606;2024-03-08T06:27:41;26.23;;;15.07;;
68655;SDS011;55638;51.122;13.606;2024-03-08T06:29:14;28.42;;;15.90;;
68655;SDS011;55638;51.122;13.606;2024-03-08T06:30:47;24.48;;;14.77;;
68655;SDS011;55638;51.122;13.606;2024-03-08T06:32:18;26.75;;;14.38;;
68655;SDS011;55638;51.122;13.606;2024-03-08T06:33:50;27.35;;;15.23;;
68655;SDS011;55638;51.122;13.606;2024-03-08T06:35:23;25.35;;;13.95;;
68655;SDS011;55638;51.122;13.606;2024-03-08T06:36:54;28.67;;;15.30;;
68655;SDS011;55638;51.122;13.606;2024-03-08T06:38:32;29.25;;;15.60;;
68655;SDS011;55638;51.122;13.606;2024-03-08T06:40:04;26.95;;;14.77;;
68655;SDS011;55638;51.122;13.606;2024-03-08T06:41:39;25.95;;;14.88;;
68655;SDS011;55638;51.122;13.606;2024-03-08T06:43:12;27.23;;;14.82;;
68655;SDS011;55638;51.122;13.606;2024-03-08T06:44:47;26.63;;;15.27;;
68655;SDS011;55638;51.122;13.606;2024-03-08T06:46:21;27.92;;;15.90;;
68655;SDS011;55638;51.122;13.606;2024-03-08T06:47:53;28.58;;;16.75;;
68655;SDS011;55638;51.122;13.606;2024-03-08T06:49:26;32.28;;;16.88;;
68655;SDS011;55638;51.122;13.606;2024-03-08T06:50:58;30.08;;;16.27;;
68655;SDS011;55638;51.122;13.606;2024-03-08T06:52:30;29.45;;;15.25;;
68655;SDS011;55638;51.122;13.606;2024-03-08T06:54:02;26.92;;;15.73;;
68655;SDS011;55638;51.122;13.606;2024-03-08T06:55:40;26.83;;;14.88;;
68655;SDS011;55638;51.122;13.606;2024-03-08T06:57:12;33.90;;;16.60;;
68655;SDS011;55638;51.122;13.606;2024-03-08T06:58:45;25.48;;;15.13;;
68655;SDS011;55638;51.122;13.606;2024-03-08T07:00:17;25.33;;;14.98;;
68655;SDS011;55638;51.122;13.606;2024-03-08T07:01:50;28.38;;;14.95;;
68655;SDS011;55638;51.122;13.606;2024-03-08T07:03:23;26.17;;;14.90;;
68655;SDS011;55638;51.122;13.606;2024-03-08T07:04:54;31.80;;;16.25;;
68655;SDS011;55638;51.122;13.606;2024-03-08T07:06:27;27.63;;;16.45;;
68655;SDS011;55638;51.122;13.606;2024-03-08T07:08:00;27.65;;;16.15;;
68655;SDS011;55638;51.122;13.606;2024-03-08T07:09:32;26.17;;;16.10;;
68655;SDS011;55638;51.122;13.606;2024-03-08T07:11:04;28.25;;;15.98;;
68655;SDS011;55638;51.122;13.606;2024-03-08T07:12:36;29.30;;;16.15;;
68655;SDS011;55638;51.122;13.606;2024-03-08T07:14:09;30.48;;;17.30;;
68655;SDS011;55638;51.122;13.606;2024-03-08T07:15:41;33.10;;;18.90;;
68655;SDS011;55638;51.122;13.606;2024-03-08T07:17:14;30.40;;;17.05;;
68655;SDS011;55638;51.122;13.606;2024-03-08T07:18:45;31.55;;;17.42;;
68655;SDS011;55638;51.122;13.606;2024-03-08T07:20:18;32.70;;;17.63;;
68655;SDS011;55638;51.122;13.606;2024-03-08T07:21:50;33.70;;;18.67;;
68655;SDS011;55638;51.122;13.606;2024-03-08T07:23:22;32.22;;;19.25;;
68655;SDS011;55638;51.122;13.606;2024-03-08T07:25:18;35.83;;;17.35;;
68655;SDS011;55638;51.122;13.606;2024-03-08T07:26:53;31.30;;;18.15;;
68655;SDS011;55638;51.122;13.606;2024-03-08T07:28:27;32.45;;;18.98;;
68655;SDS011;55638;51.122;13.606;2024-03-08T07:29:59;33.80;;;20.15;;
68655;SDS011;55638;51.122;13.606;2024-03-08T07:31:35;28.48;;;16.90;;
68655;SDS011;55638;51.122;13.606;2024-03-08T07:33:22;32.00;;;18.60;;
68655;SDS011;55638;51.122;13.606;2024-03-08T07:34:54;31.35;;;16.60;;
68655;SDS011;55638;51.122;13.606;2024-03-08T07:36:27;30.88;;;16.63;;
68655;SDS011;55638;51.122;13.606;2024-03-08T07:37:59;31.33;;;18.40;;
68655;SDS011;55638;51.122;13.606;2024-03-08T07:39:34;29.83;;;17.67;;
68655;SDS011;55638;51.122;13.606;2024-03-08T07:41:06;32.30;;;18.48;;
68655;SDS011;55638;51.122;13.606;2024-03-08T07:42:37;31.85;;;17.80;;
68655;SDS011;55638;51.122;13.606;2024-03-08T07:44:09;28.75;;;16.77;;
68655;SDS011;55638;51.122;13.606;2024-03-08T07:45:42;32.47;;;19.35;;
68655;SDS011;55638;51.122;13.606;2024-03-08T07:47:14;30.08;;;17.33;;
68655;SDS011;55638;51.122;13.606;2024-03-08T07:48:45;31.73;;;17.98;;
68655;SDS011;55638;51.122;13.606;2024-03-08T07:50:18;29.33;;;18.42;;
68655;SDS011;55638;51.122;13.606;2024-03-08T07:51:51;31.77;;;18.92;;
68655;SDS011;55638;51.122;13.606;2024-03-08T07:53:23;31.15;;;18.50;;
68655;SDS011;55638;51.122;13.606;2024-03-08T07:54:58;32.25;;;19.38;;
68655;SDS011;55638;51.122;13.606;2024-03-08T07:56:31;30.30;;;18.27;;
68655;SDS011;55638;51.122;13.606;2024-03-08T07:58:03;33.72;;;19.35;;
68655;SDS011;55638;51.122;13.606;2024-03-08T07:59:35;35.47;;;20.58;;
68655;SDS011;55638;51.122;13.606;2024-03-08T08:01:18;33.28;;;20.08;;
68655;SDS011;55638;51.122;13.606;2024-03-08T08:02:50;36.72;;;21.17;;
68655;SDS011;55638;51.122;13.606;2024-03-08T08:04:22;35.50;;;19.58;;
68655;SDS011;55638;51.122;13.606;2024-03-08T08:05:56;32.47;;;19.75;;
68655;SDS011;55638;51.122;13.606;2024-03-08T08:07:28;34.33;;;19.25;;
68655;SDS011;55638;51.122;13.606;2024-03-08T08:09:00;35.70;;;20.40;;
68655;SDS011;55638;51.122;13.606;2024-03-08T08:10:32;34.22;;;19.88;;
68655;SDS011;55638;51.122;13.606;2024-03-08T08:12:04;31.40;;;18.67;;
68655;SDS011;55638;51.122;13.606;2024-03-08T08:13:37;30.38;;;19.27;;
68655;SDS011;55638;51.122;13.606;2024-03-08T08:15:09;35.55;;;19.88;;
68655;SDS011;55638;51.122;13.606;2024-03-08T08:16:40;36.33;;;21.20;;
68655;SDS011;55638;51.122;13.606;2024-03-08T08:18:14;35.38;;;21.13;;
68655;SDS011;55638;51.122;13.606;2024-03-08T08:19:46;34.25;;;20.92;;
68655;SDS011;55638;51.122;13.606;2024-03-08T08:21:18;36.78;;;21.65;;
68655;SDS011;55638;51.122;13.606;2024-03-08T08:22:50;33.20;;;20.05;;
68655;SDS011;55638;51.122;13.606;2024-03-08T08:24:22;35.65;;;21.45;;
68655;SDS011;55638;51.122;13.606;2024-03-08T08:25:54;35.92;;;20.88;;
68655;SDS011;55638;51.122;13.606;2024-03-08T08:27:27;35.90;;;20.77;;
68655;SDS011;55638;51.122;13.606;2024-03-08T08:28:59;33.95;;;20.33;;
68655;SDS011;55638;51.122;13.606;2024-03-08T08:30:31;34.35;;;20.80;;
68655;SDS011;55638;51.122;13.606;2024-03-08T08:32:05;35.83;;;21.45;;
68655;SDS011;55638;51.122;13.606;2024-03-08T08:33:37;38.70;;;21.85;;
68655;SDS011;55638;51.122;13.606;2024-03-08T08:35:09;35.58;;;21.85;;
68655;SDS011;55638;51.122;13.606;2024-03-08T08:36:44;33.08;;;20.15;;
68655;SDS011;55638;51.122;13.606;2024-03-08T08:38:16;36.30;;;21.17;;
68655;SDS011;55638;51.122;13.606;2024-03-08T08:39:49;32.22;;;19.35;;
68655;SDS011;55638;51.122;13.606;2024-03-08T08:41:23;30.70;;;19.27;;
68655;SDS011;55638;51.122;13.606;2024-03-08T08:42:54;31.38;;;19.88;;
68655;SDS011;55638;51.122;13.606;2024-03-08T08:44:29;34.45;;;20.80;;
68655;SDS011;55638;51.122;13.606;2024-03-08T08:46:03;32.65;;;19.70;;
68655;SDS011;55638;51.122;13.606;2024-03-08T08:47:36;31.92;;;20.60;;
68655;SDS011;55638;51.122;13.606;2024-03-08T08:49:08;31.40;;;18.77;;
68655;SDS011;55638;51.122;13.606;2024-03-08T08:50:42;33.15;;;19.52;;
68655;SDS011;55638;51.122;13.606;2024-03-08T08:52:16;27.90;;;18.83;;
68655;SDS011;55638;51.122;13.606;2024-03-08T08:53:48;31.45;;;18.85;;
68655;SDS011;55638;51.122;13.606;2024-03-08T08:55:20;32.38;;;19.10;;